Carnival Spirit — 9HA3097 — position and weather

sailwx.info

Track history (hours):
 
Tides and Currents Weather Stations Pressure Air Temp Water Temp Dewpoint Dewpoint Depression Visibility Wind Speed Wind Dir Waves Ship Positions

Carnival Spirit

Last reported at 2017-May-28 02:00 UTC. Time now 2017-May-28 12:17 UTC.
Position S 23°18' E 167°06'.

Length 293 m.

Type: Ship. MMSI: 229136000.

Wind from 140 at 20 knots

Barometer 1018.0 mb
Air temperature 23.0 ° C
Visibility: greater than 10.8 NM
Dewpoint 16.9 ° C
Water temperature 25.0 ° C

Date/timePositionNaut miles runAvg speedWind from/ knotsBaromVisibWave heightAir tempDewpointWater temp
2017-May-28 02:00S 23°18' E 167°06'2412.2 140 / 201018.010.8 23.016.925.0
2017-May-28 00:00S 23°36' E 166°48'17514.6 150 / 281018.727.0 23.016.925.0
2017-May-27 12:00S 25°18' E 164°12'32116.9 140 / 151020.510.8 20.016.924.0
2017-May-26 17:00S 28°30' E 159°24'8316.6 170 / 161020.210.8 20.013.522.0
2017-May-26 12:00S 29°24' E 158°12'20016.7 150 / 181020.910.8 20.013.524.0
2017-May-26 00:00S 31°24' E 155°06'12816.7 180 / 111020.610.8 20.016.922.0
2017-May-25 16:22S 32°44' E 153°08'1016.6
2017-May-25 15:46S 32°50' E 152°59'416.8
2017-May-25 15:30S 32°52' E 152°55'817.1
2017-May-25 15:00S 32°57' E 152°47'917.4
2017-May-25 14:30S 33°03' E 152°38'1717.3
2017-May-25 13:30S 33°13' E 152°22'917.1
2017-May-25 13:00S 33°18' E 152°13'11 0.5
2017-May-24 15:30S 33°20' E 152°00'816.5
2017-May-24 15:00S 33°14' E 152°08'816.3
2017-May-24 14:30S 33°08' E 152°14'1616.1
2017-May-24 13:30S 32°57' E 152°28'816.2
2017-May-24 13:00S 32°51' E 152°35'816.1
2017-May-24 12:30S 32°46' E 152°42'816.3
2017-May-24 12:00S 32°40' E 152°49'11516.4
2017-May-24 05:00S 31°18' E 154°24'81716.1 340 / 361009.1 5.4 22.019.023.0
2017-May-22 02:17S 22°32' E 166°06'515.8
2017-May-22 02:00S 22°29' E 166°10'510.2
2017-May-22 01:30S 22°26' E 166°13'4 7.7
2017-May-22 01:00S 22°25' E 166°09'3 5.6
2017-May-22 00:30S 22°25' E 166°12'816.4
2017-May-22 00:00S 22°29' E 166°20'713.2
2017-May-21 23:31S 22°31' E 166°27'713.5
2017-May-21 23:00S 22°28' E 166°33'816.4
2017-May-21 22:30S 22°24' E 166°41'1514.7
2017-May-21 21:30S 22°27' E 166°57'14 0.4
2017-May-20 07:50S 22°23' E 166°43'516.0
2017-May-20 07:30S 22°23' E 166°37'815.9
2017-May-20 07:00S 22°20' E 166°29'714.8
2017-May-20 06:31S 22°16' E 166°23'3 6.3
2017-May-20 06:00S 22°16' E 166°26'0 0.4
2017-May-20 05:29S 22°16' E 166°26'0 0.0
2017-May-20 04:59S 22°16' E 166°26'0 0.0
2017-May-20 04:29S 22°16' E 166°26'0 0.0
2017-May-20 03:59S 22°16' E 166°26'0 0.0
2017-May-20 03:29S 22°16' E 166°26'0 0.0
2017-May-20 02:59S 22°16' E 166°26'0 0.0
2017-May-20 02:29S 22°16' E 166°26'0 0.0
2017-May-20 01:59S 22°16' E 166°26'0 0.0
2017-May-20 01:29S 22°16' E 166°26'0 0.0
2017-May-20 00:59S 22°16' E 166°26'0 0.0
2017-May-20 00:29S 22°16' E 166°26'0 0.0
2017-May-19 23:56S 22°16' E 166°26'0 0.0
2017-May-19 23:29S 22°16' E 166°26'0 0.0
2017-May-19 22:59S 22°16' E 166°26'0 0.0
2017-May-19 22:29S 22°16' E 166°26'0 0.0
2017-May-19 21:59S 22°16' E 166°26'0 0.0
2017-May-19 21:26S 22°16' E 166°26'0 0.0
2017-May-19 21:01S 22°16' E 166°26'1 1.0
2017-May-19 20:31S 22°16' E 166°26'4 8.9
2017-May-19 20:00S 22°16' E 166°21'815.3
2017-May-19 19:31S 22°22' E 166°15'5 9.2
2017-May-19 19:00S 22°25' E 166°11'713.2
2017-May-19 18:30S 22°29' E 166°06'  
Track history (hours):
 
Tides and Currents Weather Stations Pressure Air Temp Water Temp Dewpoint Dewpoint Depression Visibility Wind Speed Wind Dir Waves Ship Positions

Carnival Spirit

Last reported at 2017-May-28 02:00 UTC. Time now 2017-May-28 12:17 UTC.
Position S 23°18' E 167°06'.

Length 293 m.

Type: Ship. MMSI: 229136000.

Wind from 140 at 20 knots

Barometer 1018.0 mb
Air temperature 23.0 ° C
Visibility: greater than 10.8 NM
Dewpoint 16.9 ° C
Water temperature 25.0 ° C

Date/timePositionNaut miles runAvg speedWind from/ knotsBaromVisibWave heightAir tempDewpointWater temp
2017-May-28 02:00S 23°18' E 167°06'2412.2 140 / 201018.010.8 23.016.925.0
2017-May-28 00:00S 23°36' E 166°48'17514.6 150 / 281018.727.0 23.016.925.0
2017-May-27 12:00S 25°18' E 164°12'32116.9 140 / 151020.510.8 20.016.924.0
2017-May-26 17:00S 28°30' E 159°24'8316.6 170 / 161020.210.8 20.013.522.0
2017-May-26 12:00S 29°24' E 158°12'20016.7 150 / 181020.910.8 20.013.524.0
2017-May-26 00:00S 31°24' E 155°06'12816.7 180 / 111020.610.8 20.016.922.0
2017-May-25 16:22S 32°44' E 153°08'1016.6
2017-May-25 15:46S 32°50' E 152°59'416.8
2017-May-25 15:30S 32°52' E 152°55'817.1
2017-May-25 15:00S 32°57' E 152°47'917.4
2017-May-25 14:30S 33°03' E 152°38'1717.3
2017-May-25 13:30S 33°13' E 152°22'917.1
2017-May-25 13:00S 33°18' E 152°13'11 0.5
2017-May-24 15:30S 33°20' E 152°00'816.5
2017-May-24 15:00S 33°14' E 152°08'816.3
2017-May-24 14:30S 33°08' E 152°14'1616.1
2017-May-24 13:30S 32°57' E 152°28'816.2
2017-May-24 13:00S 32°51' E 152°35'816.1
2017-May-24 12:30S 32°46' E 152°42'816.3
2017-May-24 12:00S 32°40' E 152°49'11516.4
2017-May-24 05:00S 31°18' E 154°24'81716.1 340 / 361009.1 5.4 22.019.023.0
2017-May-22 02:17S 22°32' E 166°06'515.8
2017-May-22 02:00S 22°29' E 166°10'510.2
2017-May-22 01:30S 22°26' E 166°13'4 7.7
2017-May-22 01:00S 22°25' E 166°09'3 5.6
2017-May-22 00:30S 22°25' E 166°12'816.4
2017-May-22 00:00S 22°29' E 166°20'713.2
2017-May-21 23:31S 22°31' E 166°27'713.5
2017-May-21 23:00S 22°28' E 166°33'816.4
2017-May-21 22:30S 22°24' E 166°41'1514.7
2017-May-21 21:30S 22°27' E 166°57'14 0.4
2017-May-20 07:50S 22°23' E 166°43'516.0
2017-May-20 07:30S 22°23' E 166°37'815.9
2017-May-20 07:00S 22°20' E 166°29'714.8
2017-May-20 06:31S 22°16' E 166°23'3 6.3
2017-May-20 06:00S 22°16' E 166°26'0 0.4
2017-May-20 05:29S 22°16' E 166°26'0 0.0
2017-May-20 04:59S 22°16' E 166°26'0 0.0
2017-May-20 04:29S 22°16' E 166°26'0 0.0
2017-May-20 03:59S 22°16' E 166°26'0 0.0
2017-May-20 03:29S 22°16' E 166°26'0 0.0
2017-May-20 02:59S 22°16' E 166°26'0 0.0
2017-May-20 02:29S 22°16' E 166°26'0 0.0
2017-May-20 01:59S 22°16' E 166°26'0 0.0
2017-May-20 01:29S 22°16' E 166°26'0 0.0
2017-May-20 00:59S 22°16' E 166°26'0 0.0
2017-May-20 00:29S 22°16' E 166°26'0 0.0
2017-May-19 23:56S 22°16' E 166°26'0 0.0
2017-May-19 23:29S 22°16' E 166°26'0 0.0
2017-May-19 22:59S 22°16' E 166°26'0 0.0
2017-May-19 22:29S 22°16' E 166°26'0 0.0
2017-May-19 21:59S 22°16' E 166°26'0 0.0
2017-May-19 21:26S 22°16' E 166°26'0 0.0
2017-May-19 21:01S 22°16' E 166°26'1 1.0
2017-May-19 20:31S 22°16' E 166°26'4 8.9
2017-May-19 20:00S 22°16' E 166°21'815.3
2017-May-19 19:31S 22°22' E 166°15'5 9.2
2017-May-19 19:00S 22°25' E 166°11'713.2
2017-May-19 18:30S 22°29' E 166°06'  

Dump ship's entire track history